map of VDE home
VDE - Airport
Location
City:  Valverde, El Hierro Island, Canary Islands, Spain
Name:El Hierro
ICAO:GCHI
IATA:VDE

Details
Type:Airport (Aerodrome, Airfield)
Latitude:2748'53"N (27.814847)
Longitude:1753'13"W (-17.887055)
Datum:WGS 1984
Elevation:103 ft (31 m)
Variation:5.35W (WMM2015v2 magnetic declination)
0.15 annual change
Runways:1
Longest:4101 × 98 ft (1250 × 30 m), paved

Time
Time Zone:UTC+0 (DST+1)
Local Time:

Weather
METAR:GCHI 041400Z 03015KT 360V060 9999 FEW025 20/14 Q1021
TAF:GCHI 040800Z 0409/0509 04016KT 9999 FEW025 TX20/0414Z TN17/0506Z PROB40
TEMPO 0421/0509 4900 HZ

Related Locations
Nearby:
Farthest:LDH: 12120 mi / 19505 km
Lord Howe Island, NSW, AU

Find:

   beyond  
but within

Other Information
Maps:
NOTAMs:
Links:
Sources:

  
  • flag of Spain
  • flag of Canary Islands
  

Sectional Chart

Flight Planning
at skyvector.com

Satellite Image

Google Maps Satellite view

 

Copyright © 2004-2019 Karl L. Swartz. All rights reserved.
The Great Circle Mapper name and logo are trademarks of the Great Circle Mapper.
All other trademarks mentioned herein belong to their respective owners.
Please see credits for attibutions and further copyright information.

  Follow gcmap on Facebook Follow gcmap on Twitter GCmap on LinkedIn

hCard Microformat

Geo Microformat